< < Back
Terminal Aerodrome Forecast


Current Version              Previous Versions:   1  2  3  4  5  6  7  8  9  

Terminal Aerodrome Forecast

661
FTUS42 KJAX 232300
TAFJAX
TAF
KJAX 232320Z 2400/2424 09008KT P6SM BKN050
     FM240200 23004KT P6SM SCT050 BKN250
     FM241400 25007KT P6SM SCT025
     FM241900 24009KT P6SM VCTS BKN040CB=

Latest METAR

294
SAUS80 KWBC 242000 CCA
MTRJAX
METAR KJAX 241956Z 24008KT 10SM BKN040 BKN250 34/21 A2995 RMK AO2 SLP143
T03390211 $


USA.gov is the U.S. government's official web portal to all federal, state and local government web resources and services.